< Cyclone 201207 2012 Season Cyclone 201212 >
Cyclone 201211 (Iggy)
General InformationTrack Information on Google MapsDetailed Wind InformationList of All Images || ResourceGoogle EarthGE AnimationAtom FeedGeoJSON
Detalied Best Track (Time Zone = UTC)
Year Month Day Hour Lat. Long. Pressure (hPa) Wind (kt) Class Image Chart
2012 1 23 00 -12.6 116.8 1002 0 0 Image --
2012 1 23 12 -14.9 116.0 1002 25 2 Image --
2012 1 23 18 -15.1 114.5 1001 25 2 Image --
2012 1 23 21 -15.9 114.8 1001 25 0 Image --
2012 1 24 00 -15.2 113.0 1001 25 2 Image --
2012 1 24 03 -15.9 113.3 998 25 2 Image --
2012 1 24 06 -15.4 112.0 998 30 2 Image --
2012 1 24 09 -15.9 112.0 998 30 2 Image --
2012 1 24 12 -15.5 111.0 998 30 2 Image --
2012 1 24 15 -15.9 110.3 997.667 30 0 Image --
2012 1 24 18 -15.7 110.2 997 30 2 Image --
2012 1 24 21 -15.9 109.6 995.667 30 2 Image --
2012 1 25 00 -15.7 109.4 993 30 2 Image --
2012 1 25 03 -15.7 108.8 991.5 32.5 0 Image --
2012 1 25 06 -15.7 108.3 990 35 3 Image --
2012 1 25 09 -15.7 108.2 994 30 2 Image --
2012 1 25 12 -15.7 108.4 988 35 3 Image --
2012 1 25 15 -15.8 108.1 994 30 2 Image --
2012 1 25 18 -15.9 108.5 985 40 3 Image --
2012 1 25 21 -16.0 108.4 986 40 3 Image --
2012 1 26 00 -16.1 108.6 978 50 4 Image --
2012 1 26 06 -16.5 108.9 978 50 4 Image --
2012 1 26 12 -17.0 109.4 976 50 4 Image --
2012 1 26 14 -16.9 109.5 981 45 3 Image --
2012 1 26 18 -17.5 109.7 975 50 4 Image --
2012 1 26 19 -17.2 109.8 981 45 3 Image --
2012 1 26 21 -17.4 110.0 979 50 4 Image --
2012 1 27 00 -18.1 110.0 980 50 4 Image --
2012 1 27 03 -18.1 110.2 979 50 4 Image --
2012 1 27 06 -18.6 110.5 979 50 4 Image --
2012 1 27 09 -18.6 110.8 977 50 4 Image --
2012 1 27 12 -19.0 110.8 978 50 4 Image --
2012 1 27 15 -19.3 110.9 977 50 4 Image --
2012 1 27 18 -19.4 110.6 979 50 4 Image --
2012 1 27 21 -19.6 110.7 977 50 4 Image --
2012 1 28 00 -19.6 110.7 977 55 4 Image --
2012 1 28 03 -19.8 110.7 975 50 4 Image --
2012 1 28 06 -19.8 110.7 976 55 4 Image --
2012 1 28 09 -19.9 110.7 975 50 4 Image --
2012 1 28 12 -19.9 110.9 974 55 4 Image --
2012 1 28 15 -19.9 110.9 970 55 4 Image --
2012 1 28 18 -19.8 111.1 975 55 4 Image --
2012 1 28 21 -19.9 111.3 970 55 4 Image --
2012 1 29 00 -19.7 111.2 977 55 4 Image --
2012 1 29 03 -19.9 111.3 970 55 4 Image --
2012 1 29 06 -19.7 111.2 976 50 4 Image --
2012 1 29 09 -19.9 111.4 975 50 4 Image --
2012 1 29 12 -19.7 111.1 975 50 4 Image --
2012 1 29 15 -19.7 111.2 977 45 3 Image --
2012 1 29 18 -19.7 111.0 979 50 4 Image --
2012 1 29 21 -19.7 110.9 977 45 3 Image --
2012 1 30 00 -19.8 110.7 983 50 4 Image --
2012 1 30 03 -19.9 110.5 980 45 3 Image --
2012 1 30 06 -20.1 110.6 983 50 4 Image --
2012 1 30 07 -20.1 110.6 980.5 47.5 0 Image --
2012 1 30 09 -20.1 110.3 978 45 3 Image --
2012 1 30 12 -20.6 110.2 990 50 4 Image --
2012 1 30 15 -20.6 110.0 974 55 4 Image --
2012 1 30 18 -21.2 109.8 990 45 3 Image --
2012 1 30 21 -21.3 109.7 980 50 4 Image --
2012 1 31 00 -21.8 109.4 984 45 3 Image --
2012 1 31 03 -22.1 109.0 985 45 3 Image --
2012 1 31 05 -22.4 108.7 985 45 3 Image --
2012 1 31 06 -22.6 108.9 980 50 4 Image --
2012 1 31 09 -23.1 108.4 985 45 3 Image --
2012 1 31 12 -23.8 108.2 977 60 4 Image --
2012 1 31 15 -24.4 108.0 980 50 4 Image --
2012 1 31 18 -24.8 107.7 976 60 4 Image --
2012 1 31 21 -25.3 107.5 979 50 4 Image --
2012 2 1 00 -26.1 107.8 978 55 4 Image --
2012 2 1 03 -26.7 107.8 980 50 4 Image --
2012 2 1 06 -27.4 107.9 981 50 4 Image --
2012 2 1 09 -27.8 108.1 982 45 3 Image --
2012 2 1 12 -28.4 108.5 985 45 3 Image --
2012 2 1 18 -29.0 109.4 988 40 3 Image --
2012 2 2 00 -29.7 110.8 989 35 3 Image --
2012 2 2 02 -29.6 111.1 989.5 32.5 0 Image --
2012 2 2 04 -29.7 111.5 990 30 2 Image --
2012 2 2 05 -29.8 111.7 990.333 30 0 Image --
2012 2 2 06 -29.7 111.9 991 30 2 Image --
2012 2 2 12 -29.8 113.2 995 25 2 Image --
2012 2 2 18 -29.7 114.1 994 25 2 Image --
2012 2 2 22 -29.4 115.0 995.5 22.5 0 Image --
2012 2 3 00 -29.4 115.0 997 20 2 Image --
< Cyclone 201207 2012 Season Cyclone 201212 >

Help